.
WxDataArchive / Data Records for 2012-08-05
2012-08-04 August 2012 2012-08-06

Data Records for Sunday, 05 August 2012

Time	Temp	Chill	HIndex	Humid	Dewpt	 Wind 	HiWind	WindDir	Rain 	Barom 
-----	----	-----	------	-----	-----	------	------	-------	-----	----- 
00:00	71.3	71.3	71.3	96	70.1	1	2	292	0.00	29.865 
00:05	71.5	71.5	71.5	96	70.3	0	2	292	0.00	29.865 
00:10	71.6	71.6	71.6	96	70.4	0	2	292	0.00	29.865 
00:15	71.6	71.6	71.6	96	70.4	0	1	292	0.00	29.861 
00:20	71.6	71.6	71.6	96	70.4	0	1	292	0.00	29.861 
00:25	71.6	71.6	71.6	96	70.4	0	2	292	0.00	29.861 
00:30	71.6	71.6	71.6	96	70.4	0	1	292	0.00	29.857 
00:35	71.6	71.6	71.6	96	70.4	0	2	292	0.00	29.857 
00:40	71.6	71.6	71.6	96	70.4	0	2	292	0.00	29.857 
00:45	71.6	71.6	71.6	96	70.4	0	1	292	0.00	29.861 
00:50	71.5	71.5	71.5	96	70.3	0	1	292	0.00	29.861 
00:55	71.5	71.5	71.5	96	70.3	0	2	292	0.00	29.861 
01:00	71.5	71.5	71.5	96	70.3	0	2	292	0.00	29.868 
01:05	71.5	71.5	71.5	96	70.3	0	2	292	0.00	29.868 
01:10	71.5	71.5	71.5	96	70.3	0	2	292	0.00	29.868 
01:15	71.5	71.5	71.5	96	70.3	0	2	292	0.00	29.876 
01:20	71.5	71.5	71.5	96	70.3	0	2	292	0.00	29.876 
01:25	71.5	71.5	71.5	96	70.3	0	1	292	0.00	29.876 
01:30	71.3	71.3	71.3	96	70.1	0	2	292	0.00	29.880 
01:35	71.1	71.1	71.1	96	69.9	0	2	292	0.00	29.880 
01:40	71.1	71.1	71.1	96	69.9	0	1	292	0.00	29.880 
01:45	70.9	70.9	70.9	96	69.7	0	2	292	0.00	29.892 
01:50	70.9	70.9	70.9	96	69.7	0	1	292	0.00	29.892 
01:55	70.9	70.9	70.9	96	69.7	0	2	292	0.00	29.892 
02:00	70.9	70.9	70.9	96	69.7	0	2	292	0.00	29.895 
02:05	70.9	70.9	70.9	96	69.7	0	2	292	0.00	29.895 
02:10	70.9	70.9	70.9	95	69.4	0	1	292	0.00	29.895 
02:15	70.9	70.9	70.9	95	69.4	0	1	292	0.00	29.889 
02:20	70.9	70.9	70.9	95	69.4	0	1	292	0.00	29.889 
02:25	70.9	70.9	70.9	95	69.4	0	2	292	0.00	29.889 
02:30	70.9	70.9	70.9	95	69.4	0	2	292	0.00	29.892 
02:35	70.9	70.9	70.9	95	69.4	0	1	292	0.00	29.892 
02:40	70.9	70.9	70.9	95	69.4	0	1	292	0.00	29.892 
02:45	70.9	70.9	70.9	95	69.4	0	2	292	0.00	29.899 
02:50	71.1	71.1	71.1	94	69.3	0	1	292	0.00	29.899 
02:55	70.9	70.9	70.9	94	69.1	0	1	292	0.00	29.899 
03:00	70.9	70.9	70.9	94	69.1	0	1	292	0.00	29.896 
03:05	70.9	70.9	70.9	94	69.1	0	1	292	0.00	29.896 
03:10	70.9	70.9	70.9	93	68.8	0	1	292	0.00	29.896 
03:15	70.8	70.8	70.8	93	68.7	0	1	292	0.00	29.879 
03:20	70.8	70.8	70.8	93	68.7	0	1	292	0.00	29.879 
03:25	70.8	70.8	70.8	93	68.7	0	0	---	0.00	29.879 
03:30	70.8	70.8	70.8	92	68.4	0	0	---	0.00	29.874 
03:35	70.8	70.8	70.8	92	68.4	0	0	---	0.00	29.874 
03:40	70.8	70.8	70.8	92	68.4	0	0	---	0.00	29.874 
03:45	70.6	70.6	70.6	92	68.2	0	0	---	0.00	29.870 
03:50	70.6	70.6	70.6	92	68.2	0	0	---	0.00	29.870 
03:55	70.6	70.6	70.6	92	68.2	0	0	---	0.00	29.870 
04:00	70.6	70.6	70.6	92	68.2	0	0	---	0.00	29.868 
04:05	70.4	70.4	70.4	92	68.0	0	0	---	0.00	29.868 
04:10	70.4	70.4	70.4	92	68.0	0	0	---	0.00	29.868 
04:15	70.4	70.4	70.4	92	68.0	0	0	---	0.00	29.865 
04:20	70.4	70.4	70.4	92	68.0	0	0	---	0.00	29.865 
04:25	70.4	70.4	70.4	92	68.0	0	0	---	0.00	29.865 
04:30	70.3	70.3	70.3	92	67.9	0	0	---	0.00	29.873 
04:35	70.3	70.3	70.3	92	67.9	0	0	---	0.00	29.873 
04:40	70.3	70.3	70.3	93	68.2	0	0	---	0.00	29.873 
04:45	70.3	70.3	70.3	93	68.2	0	0	---	0.00	29.872 
04:50	70.4	70.4	70.4	93	68.3	0	0	---	0.00	29.872 
04:55	70.4	70.4	70.4	93	68.3	0	0	---	0.00	29.872 
05:00	70.4	70.4	70.4	93	68.3	0	0	---	0.00	29.883 
05:05	70.4	70.4	70.4	93	68.3	0	0	---	0.00	29.883 
05:10	70.6	70.6	70.6	93	68.5	0	0	---	0.00	29.883 
05:15	70.6	70.6	70.6	93	68.5	0	0	---	0.00	29.890 
05:20	70.6	70.6	70.6	93	68.5	0	1	292	0.00	29.890 
05:25	70.8	70.8	70.8	93	68.7	0	0	---	0.00	29.890 
05:30	70.8	70.8	70.8	93	68.7	0	0	---	0.00	29.896 
05:35	70.8	70.8	70.8	93	68.7	0	0	---	0.00	29.896 
05:40	70.9	70.9	70.9	93	68.8	0	0	---	0.00	29.896 
05:45	70.9	70.9	70.9	92	68.5	0	0	---	0.00	29.893 
05:50	71.1	71.1	71.1	92	68.7	0	0	---	0.00	29.893 
05:55	71.1	71.1	71.1	92	68.7	0	0	---	0.00	29.893 
06:00	71.1	71.1	71.1	92	68.7	0	0	---	0.00	29.896 
06:05	71.3	71.3	71.3	92	68.8	0	0	---	0.00	29.896 
06:10	71.3	71.3	71.3	92	68.8	0	0	---	0.00	29.896 
06:15	71.3	71.3	71.3	92	68.8	0	0	---	0.00	29.888 
06:20	71.3	71.3	71.3	92	68.8	0	0	---	0.00	29.888 
06:25	71.3	71.3	71.3	92	68.8	0	0	---	0.00	29.888 
06:30	71.3	71.3	71.3	92	68.8	0	0	---	0.00	29.887 
06:35	71.5	71.5	71.5	92	69.0	0	1	292	0.00	29.887 
06:40	71.5	71.5	71.5	92	69.0	0	0	---	0.00	29.887 
06:45	71.5	71.5	71.5	92	69.0	0	0	---	0.00	29.898 
06:50	71.5	71.5	71.5	92	69.0	0	1	292	0.00	29.898 
06:55	71.5	71.5	71.5	92	69.0	0	1	292	0.01	29.898 
07:00	71.5	71.5	71.5	92	69.0	0	1	292	0.01	29.907 
07:05	71.5	71.5	71.5	92	69.0	0	1	292	0.00	29.907 
07:10	71.3	71.3	71.3	92	68.8	0	2	292	0.01	29.907 
07:15	71.3	71.3	71.3	92	68.8	1	2	292	0.01	29.919 
07:20	71.1	71.1	71.1	92	68.7	1	3	292	0.00	29.919 
07:25	71.1	71.1	71.1	93	69.0	1	2	292	0.01	29.919 
07:30	71.1	71.1	71.1	93	69.0	1	4	292	0.01	29.916 
07:35	71.1	71.1	71.1	93	69.0	1	4	292	0.02	29.916 
07:40	70.9	70.9	70.9	93	68.8	0	2	292	0.01	29.916 
07:45	70.9	70.9	70.9	93	68.8	1	3	292	0.01	29.903 
07:50	70.9	70.9	70.9	94	69.1	0	2	292	0.01	29.903 
07:55	70.8	70.8	70.8	94	69.0	1	2	292	0.02	29.903 
08:00	70.8	70.8	70.8	94	69.0	0	2	292	0.01	29.916 
08:05	70.8	70.8	70.8	94	69.0	0	1	292	0.00	29.916 
08:10	70.8	70.8	70.8	94	69.0	0	1	292	0.00	29.916 
08:15	70.8	70.8	70.8	94	69.0	0	1	292	0.00	29.926 
08:20	70.8	70.8	70.8	94	69.0	0	1	292	0.00	29.926 
08:25	70.8	70.8	70.8	94	69.0	0	0	---	0.00	29.926 
08:30	70.8	70.8	70.8	95	69.3	0	1	292	0.00	29.920 
08:35	70.8	70.8	70.8	95	69.3	0	1	292	0.00	29.920 
08:40	70.9	70.9	70.9	95	69.4	0	1	292	0.00	29.920 
08:45	70.9	70.9	70.9	95	69.4	0	0	---	0.00	29.925 
08:50	71.1	71.1	71.1	95	69.6	0	1	292	0.00	29.925 
08:55	71.3	71.3	71.3	95	69.8	0	1	292	0.00	29.925 
09:00	71.5	71.5	71.5	95	70.0	0	1	292	0.00	29.935 
09:05	71.5	71.5	71.5	95	70.0	0	1	292	0.00	29.935 
09:10	71.6	71.6	71.6	95	70.1	0	2	292	0.00	29.935 
09:15	71.6	71.6	71.6	95	70.1	0	2	292	0.00	29.951 
09:20	71.8	71.8	71.8	95	70.3	0	1	292	0.00	29.951 
09:25	71.8	71.8	71.8	95	70.3	0	1	292	0.00	29.951 
09:30	71.8	71.8	71.8	95	70.3	0	1	292	0.00	29.961 
09:35	71.8	71.8	71.8	95	70.3	0	2	292	0.00	29.961 
09:40	71.8	71.8	71.8	95	70.3	0	2	292	0.00	29.961 
09:45	71.8	71.8	71.8	95	70.3	1	2	292	0.00	29.966 
09:50	71.8	71.8	71.8	95	70.3	0	1	292	0.00	29.966 
09:55	72.0	72.0	72.0	95	70.5	0	1	292	0.00	29.966 
10:00	72.1	72.1	72.1	95	70.6	0	2	292	0.00	29.969 
10:05	72.5	72.5	72.5	95	71.0	0	2	292	0.00	29.969 
10:10	72.7	72.7	72.7	95	71.2	0	2	292	0.00	29.969 
10:15	72.5	72.5	72.5	95	71.0	1	3	292	0.00	29.967 
10:20	72.8	72.8	72.8	95	71.3	1	3	292	0.00	29.967 
10:25	73.2	73.2	73.2	94	71.4	1	2	292	0.00	29.967 
10:30	72.8	72.8	72.8	94	71.0	1	4	292	0.00	29.970 
10:35	73.2	73.2	73.2	94	71.4	0	1	292	0.00	29.970 
10:40	73.2	73.2	73.2	93	71.0	1	2	292	0.00	29.970 
10:45	73.2	73.2	73.2	92	70.7	1	3	292	0.00	29.969 
10:50	73.3	73.3	73.3	91	70.5	1	3	292	0.00	29.969 
10:55	73.3	73.3	73.3	90	70.2	0	2	292	0.00	29.969 
11:00	73.5	73.5	73.5	90	70.4	1	3	292	0.00	29.979 
11:05	73.5	73.5	73.5	88	69.7	1	4	292	0.00	29.979 
11:10	73.7	73.7	73.7	88	69.9	1	3	338	0.00	29.979 
11:15	74.0	74.0	74.0	87	69.9	1	3	338	0.00	29.980 
11:20	74.2	74.2	74.2	86	69.7	1	3	338	0.00	29.980 
11:25	74.4	74.4	74.4	85	69.6	1	2	338	0.00	29.980 
11:30	74.6	74.6	74.6	85	69.8	0	1	338	0.00	29.979 
11:35	74.7	74.7	74.7	84	69.5	1	5	292	0.00	29.979 
11:40	75.1	75.1	75.2	84	69.9	1	4	292	0.01	29.979 
11:45	75.3	75.3	75.8	82	69.4	2	5	315	0.00	29.982 
11:50	76.0	76.0	76.9	81	69.7	1	3	292	0.00	29.982 
11:55	76.5	76.5	77.8	79	69.5	2	5	292	0.00	29.982 
12:00	76.5	76.5	78.0	75	68.0	3	5	292	0.00	29.987 
12:05	76.8	76.8	78.4	75	68.3	2	3	292	0.00	29.987 
12:10	77.4	77.4	79.3	71	67.2	3	4	292	0.00	29.987 
12:15	78.1	78.1	80.2	70	67.5	3	6	292	0.00	29.985 
12:20	78.6	78.6	81.0	72	68.8	3	5	292	0.00	29.985 
12:25	79.0	79.0	81.4	70	68.4	3	4	292	0.00	29.985 
12:30	79.0	79.0	81.1	66	66.6	3	5	315	0.00	29.990 
12:35	79.4	79.4	81.6	66	67.0	3	5	315	0.00	29.990 
12:40	79.4	79.4	81.6	66	67.0	3	6	270	0.00	29.990 
12:45	79.8	79.8	81.9	63	66.1	2	5	292	0.00	29.990 
12:50	79.4	79.4	81.3	62	65.2	2	4	338	0.00	29.990 
12:55	79.4	79.4	80.9	58	63.3	3	7	270	0.00	29.990 
13:00	79.9	79.9	81.5	58	63.8	2	4	292	0.00	29.992 
13:05	79.9	79.9	81.5	58	63.8	3	5	315	0.00	29.992 
13:10	80.3	80.3	81.7	56	63.1	3	6	315	0.00	29.992 
13:15	80.3	80.3	81.2	51	60.5	4	7	292	0.00	29.995 
13:20	80.5	80.5	81.7	54	62.3	3	5	270	0.00	29.995 
13:25	80.7	80.7	81.9	54	62.5	2	6	315	0.00	29.995 
13:30	80.3	80.3	80.9	48	58.8	3	6	292	0.00	29.995 
13:35	80.9	80.9	81.2	46	58.2	4	7	292	0.00	29.995 
13:40	80.9	80.9	81.3	47	58.8	3	7	315	0.00	29.995 
13:45	81.2	81.2	81.7	48	59.6	2	5	315	0.00	29.995 
13:50	81.2	81.2	81.8	49	60.2	3	6	315	0.00	29.995 
13:55	81.4	81.4	81.9	48	59.8	3	4	270	0.00	29.995 
14:00	81.6	81.6	82.3	50	61.1	2	7	315	0.00	29.995 
14:05	82.0	82.0	82.6	49	60.9	3	6	270	0.00	29.995 
14:10	82.2	82.2	82.8	49	61.1	2	4	270	0.00	29.995 
14:15	81.6	81.6	82.3	50	61.1	2	4	292	0.00	29.994 
14:20	81.1	81.1	81.7	49	60.1	3	5	315	0.00	29.994 
14:25	81.4	81.4	82.3	51	61.5	2	4	315	0.00	29.994 
14:30	81.6	81.6	82.3	50	61.1	3	6	270	0.00	29.995 
14:35	81.6	81.6	81.8	46	58.8	4	7	315	0.00	29.995 
14:40	81.1	81.1	81.6	48	59.5	3	5	270	0.00	29.995 
14:45	81.1	81.1	81.7	49	60.1	3	5	338	0.00	29.997 
14:50	81.2	81.2	81.5	46	58.4	3	5	270	0.00	29.997 
14:55	81.6	81.6	81.8	46	58.8	3	6	315	0.00	29.997 
15:00	81.8	81.8	82.3	48	60.2	3	5	270	0.00	29.997 
15:05	81.8	81.8	82.1	47	59.6	3	5	270	0.00	29.997 
15:10	82.0	82.0	82.5	48	60.3	2	6	292	0.00	29.997 
15:15	82.4	82.4	82.6	46	59.5	3	6	270	0.00	29.996 
15:20	82.2	82.2	82.4	46	59.3	3	7	270	0.00	29.996 
15:25	82.2	82.2	82.7	48	60.5	2	5	270	0.00	29.996 
15:30	82.6	82.6	82.8	46	59.7	2	6	292	0.00	29.997 
15:35	82.4	82.4	82.5	45	58.9	3	6	270	0.00	29.997 
15:40	82.4	82.4	82.5	45	58.9	2	5	292	0.00	29.997 
15:45	82.4	82.4	82.3	44	58.3	2	5	292	0.00	30.000 
15:50	82.2	82.2	82.4	46	59.3	3	5	315	0.00	30.000 
15:55	82.4	82.4	82.2	43	57.6	2	5	315	0.00	30.000 
16:00	83.0	83.0	83.2	46	60.1	1	4	270	0.00	29.998 
16:05	82.6	82.6	82.7	45	59.1	4	7	270	0.00	29.998 
16:10	82.0	82.0	82.3	47	59.8	2	5	292	0.00	29.998 
16:15	82.2	82.2	82.4	46	59.3	3	5	292	0.00	30.002 
16:20	82.4	82.4	82.7	47	60.1	2	6	270	0.00	30.002 
16:25	82.2	82.2	82.4	46	59.3	3	6	270	0.00	30.002 
16:30	82.0	82.0	82.2	46	59.1	3	7	270	0.00	30.006 
16:35	81.8	81.8	82.3	48	60.2	2	5	248	0.00	30.006 
16:40	82.2	82.2	82.5	47	59.9	2	4	292	0.00	30.006 
16:45	82.4	82.4	82.6	46	59.5	3	6	338	0.00	30.003 
16:50	81.6	81.6	81.9	47	59.4	4	6	292	0.00	30.003 
16:55	81.4	81.4	81.9	48	59.8	2	5	292	0.00	30.003 
17:00	81.6	81.6	82.1	48	60.0	2	4	315	0.00	30.001 
17:05	81.8	81.8	82.1	47	59.6	2	6	315	0.00	30.001 
17:10	81.6	81.6	81.8	46	58.8	3	7	292	0.00	30.001 
17:15	81.4	81.4	81.6	46	58.6	3	6	292	0.00	30.007 
17:20	81.6	81.6	81.8	46	58.8	3	6	292	0.00	30.007 
17:25	81.6	81.6	81.8	46	58.8	2	5	292	0.00	30.007 
17:30	81.8	81.8	81.9	45	58.4	3	6	270	0.00	30.006 
17:35	81.8	81.8	82.0	46	59.0	3	5	270	0.00	30.006 
17:40	82.0	82.0	82.1	45	58.5	2	5	270	0.00	30.006 
17:45	82.0	82.0	82.2	46	59.1	1	5	315	0.00	30.007 
17:50	81.8	81.8	82.3	48	60.2	2	5	315	0.00	30.007 
17:55	81.6	81.6	81.9	47	59.4	2	5	270	0.00	30.007 
18:00	81.2	81.2	81.8	49	60.2	1	3	270	0.00	30.008 
18:05	80.7	80.7	81.3	49	59.7	1	4	292	0.00	30.008 
18:10	80.1	80.1	80.9	50	59.8	2	5	292	0.00	30.008 
18:15	79.6	79.6	80.5	50	59.3	2	5	315	0.00	30.010 
18:20	79.4	79.4	80.4	51	59.7	1	4	292	0.00	30.010 
18:25	79.9	79.9	80.6	49	59.0	2	5	270	0.00	30.010 
18:30	80.1	80.1	80.6	47	58.0	2	6	292	0.00	30.011 
18:35	80.5	80.5	81.2	49	59.6	1	4	292	0.00	30.011 
18:40	80.3	80.3	80.7	46	57.6	2	5	270	0.00	30.011 
18:45	79.9	79.9	80.4	46	57.2	3	5	270	0.00	30.015 
18:50	79.6	79.6	80.2	47	57.6	1	4	292	0.00	30.015 
18:55	79.6	79.6	80.2	47	57.6	1	4	270	0.00	30.015 
19:00	79.4	79.4	80.0	46	56.8	2	4	315	0.00	30.019 
19:05	79.4	79.4	79.9	45	56.2	1	5	315	0.00	30.019 
19:10	79.2	79.2	79.7	44	55.4	1	3	315	0.00	30.019 
19:15	79.0	79.0	79.7	46	56.4	2	5	292	0.00	30.025 
19:20	79.0	79.0	79.6	45	55.8	1	4	315	0.00	30.025 
19:25	78.8	78.8	79.6	46	56.2	1	3	292	0.00	30.025 
19:30	78.6	78.6	79.5	47	56.7	2	4	315	0.00	30.026 
19:35	78.5	78.5	79.5	49	57.7	2	4	292	0.00	30.026 
19:40	78.3	78.3	79.4	49	57.5	1	4	270	0.00	30.026 
19:45	77.9	77.9	79.2	50	57.7	1	3	315	0.00	30.029 
19:50	77.7	77.7	79.0	50	57.6	1	4	315	0.00	30.029 
19:55	77.4	77.4	78.8	49	56.7	1	4	315	0.00	30.029 
20:00	76.8	76.8	78.5	50	56.7	0	2	315	0.00	30.036 
20:05	76.7	76.7	78.4	50	56.6	0	1	315	0.00	30.036 
20:10	76.3	76.3	78.2	50	56.3	0	3	315	0.00	30.036 
20:15	76.1	76.1	78.1	50	56.1	0	2	315	0.00	30.043 
20:20	76.0	76.0	78.1	49	55.4	0	2	315	0.00	30.043 
20:25	75.6	75.6	77.9	50	55.6	1	4	248	0.00	30.043 
20:30	75.4	75.4	77.8	50	55.4	0	2	248	0.00	30.047 
20:35	75.1	75.1	77.7	51	55.7	0	2	248	0.00	30.047 
20:40	74.7	74.7	74.7	52	55.9	0	2	248	0.00	30.047 
20:45	74.4	74.4	74.4	53	56.1	0	1	248	0.00	30.056 
20:50	74.0	74.0	74.0	53	55.8	0	2	248	0.00	30.056 
20:55	73.9	73.9	73.9	53	55.7	0	0	---	0.00	30.056 
21:00	73.5	73.5	73.5	54	55.8	0	1	248	0.00	30.058 
21:05	73.2	73.2	73.2	54	55.5	0	0	---	0.00	30.058 
21:10	72.7	72.7	72.7	54	55.1	0	1	248	0.00	30.058 
21:15	72.5	72.5	72.5	54	54.9	0	1	248	0.00	30.064 
21:20	72.1	72.1	72.1	55	55.0	0	0	---	0.00	30.064 
21:25	71.8	71.8	71.8	56	55.2	0	0	---	0.00	30.064 
21:30	71.3	71.3	71.3	56	54.8	0	0	---	0.00	30.076 
21:35	70.9	70.9	70.9	57	54.9	0	0	---	0.00	30.076 
21:40	70.6	70.6	70.6	58	55.1	0	0	---	0.00	30.076 
21:45	70.1	70.1	70.1	58	54.6	0	0	---	0.00	30.082 
21:50	69.8	69.8	69.8	59	54.8	0	0	---	0.00	30.082 
21:55	69.6	69.6	69.6	59	54.6	0	0	---	0.00	30.082 
22:00	69.3	69.3	69.3	61	55.3	0	0	---	0.00	30.096 
22:05	68.9	68.9	68.9	62	55.3	0	0	---	0.00	30.096 
22:10	68.6	68.6	68.6	63	55.5	0	0	---	0.00	30.096 
22:15	68.1	68.1	68.1	62	54.6	0	0	---	0.00	30.101 
22:20	67.6	67.6	67.6	63	54.5	0	0	---	0.00	30.101 
22:25	67.3	67.3	67.3	65	55.1	0	0	---	0.00	30.101 
22:30	66.8	66.8	66.8	68	55.9	0	0	---	0.00	30.110 
22:35	66.4	66.4	66.4	69	55.9	0	0	---	0.00	30.110 
22:40	66.1	66.1	66.1	69	55.6	0	0	---	0.00	30.110 
22:45	65.8	65.8	65.8	69	55.3	0	0	---	0.00	30.112 
22:50	65.6	65.6	65.6	69	55.1	0	0	---	0.00	30.112 
22:55	65.6	65.6	65.6	68	54.7	0	0	---	0.00	30.112 
23:00	65.8	65.8	65.8	68	54.9	0	0	---	0.00	30.115 
23:05	65.8	65.8	65.8	67	54.5	0	0	---	0.00	30.115 
23:10	65.8	65.8	65.8	67	54.5	0	0	---	0.00	30.115 
23:15	65.8	65.8	65.8	67	54.5	0	0	---	0.00	30.114 
23:20	65.6	65.6	65.6	67	54.3	0	0	---	0.00	30.114 
23:25	65.5	65.5	65.5	67	54.2	0	0	---	0.00	30.114 
23:30	65.3	65.3	65.3	68	54.5	0	0	---	0.00	30.120 
23:35	65.0	65.0	65.0	69	54.6	0	0	---	0.00	30.120 
23:40	64.7	64.7	64.7	70	54.7	0	0	---	0.00	30.120 
23:45	64.3	64.3	64.3	70	54.3	0	0	---	0.00	30.120 
23:50	64.2	64.2	64.2	70	54.2	0	1	248	0.00	30.120 
23:55	64.3	64.3	64.3	70	54.3	0	0	---	0.00	30.120 

CoCoRaHS
IN-AL-39
A2 Web Hosting
Creative Commons License
GoDaddy
search engine by freefind advanced

loaded 2018-11-12 14:57:58 • last modified 2010-11-18 10:43:29
Privacy PolicyDisclaimer
• wx.awcolley.com is powered by PmWiki v.2002016 •
• all content (unless otherwise noted) © 2018 A W Colley